Time;durP1;ratioP1;P1;durP2;ratioP2;P2;SDS_P1;SDS_P2;PMS_P1;PMS_P2;Temp;Humidity;BMP_temperature;BMP_pressure;BME280_temperature;BME280_humidity;BME280_pressure;Samples;Min_cycle;Max_cycle;Signal;HPM_P1;HPM_P2
2023/05/04 00:01:29;;;;;;;2.73;1.63;;;11.20;99.90;;;;;;5076034;28;20520;-84
2023/05/04 00:03:56;;;;;;;0.90;0.90;;;11.20;99.90;;;;;;5076256;28;20484;-84
2023/05/04 00:06:22;;;;;;;1.93;1.00;;;11.10;99.90;;;;;;5076508;28;20456;-84
2023/05/04 00:08:50;;;;;;;2.10;1.50;;;11.10;99.90;;;;;;5076144;28;20434;-84
2023/05/04 00:11:17;;;;;;;2.30;1.43;;;11.10;99.90;;;;;;5075954;28;20445;-84
2023/05/04 00:13:44;;;;;;;2.07;1.40;;;11.10;99.90;;;;;;5076383;28;20452;-84
2023/05/04 00:16:11;;;;;;;1.93;1.33;;;11.00;99.90;;;;;;5076316;28;20449;-84
2023/05/04 00:18:37;;;;;;;3.33;1.20;;;11.00;99.90;;;;;;5076499;28;20450;-84
2023/05/04 00:21:05;;;;;;;1.70;1.50;;;11.10;99.90;;;;;;5076133;28;20453;-84
2023/05/04 00:23:31;;;;;;;2.03;1.30;;;11.00;99.90;;;;;;5075674;28;20456;-84
2023/05/04 00:26:00;;;;;;;1.97;1.60;;;10.90;99.90;;;;;;5076069;28;20449;-85
2023/05/04 00:28:27;;;;;;;4.47;1.20;;;10.90;99.90;;;;;;5076044;28;20476;-84
2023/05/04 00:30:54;;;;;;;2.80;1.43;;;10.90;99.90;;;;;;5075975;28;20453;-84
2023/05/04 00:33:22;;;;;;;2.23;1.10;;;10.90;99.90;;;;;;5076424;28;20469;-84
2023/05/04 00:35:49;;;;;;;4.03;1.90;;;10.90;99.90;;;;;;5075548;28;20951;-84
2023/05/04 00:38:17;;;;;;;1.90;1.37;;;10.90;99.90;;;;;;5075832;28;20453;-84
2023/05/04 00:40:44;;;;;;;2.90;1.70;;;10.80;99.90;;;;;;5075514;28;20945;-84
2023/05/04 00:43:12;;;;;;;1.50;1.13;;;10.80;99.90;;;;;;5075935;28;20469;-84
2023/05/04 00:45:40;;;;;;;3.70;1.20;;;10.80;99.90;;;;;;5075706;28;20481;-84
2023/05/04 00:48:07;;;;;;;1.17;1.07;;;10.80;99.90;;;;;;5076109;28;20460;-84
2023/05/04 00:50:35;;;;;;;3.47;1.30;;;10.70;99.90;;;;;;5075987;28;20453;-84
2023/05/04 00:53:07;;;;;;;6.10;1.93;;;10.70;99.90;;;;;;5076165;28;20460;-84
2023/05/04 00:55:36;;;;;;;3.13;1.67;;;10.60;99.90;;;;;;5075930;28;20426;-84
2023/05/04 00:58:03;;;;;;;2.07;1.50;;;10.70;99.90;;;;;;5075510;28;20449;-84
2023/05/04 01:00:31;;;;;;;3.77;1.53;;;10.70;99.90;;;;;;5075464;28;20450;-84
2023/05/04 01:02:58;;;;;;;2.77;2.23;;;10.70;99.90;;;;;;5074906;28;20489;-84
2023/05/04 01:05:31;;;;;;;2.20;1.07;;;10.60;99.90;;;;;;5075028;28;21034;-84
2023/05/04 01:08:01;;;;;;;1.80;1.13;;;10.60;99.90;;;;;;5075340;28;20434;-84
2023/05/04 01:10:34;;;;;;;1.37;1.23;;;10.60;99.90;;;;;;5074680;28;20994;-84
2023/05/04 01:13:05;;;;;;;2.87;1.13;;;10.40;99.90;;;;;;5075185;28;20470;-84
2023/05/04 01:15:34;;;;;;;1.70;1.17;;;10.40;99.90;;;;;;5075022;28;20890;-84
2023/05/04 01:18:00;;;;;;;2.20;1.43;;;10.50;99.90;;;;;;5075083;28;20460;-84
2023/05/04 01:20:27;;;;;;;4.10;1.73;;;10.40;99.90;;;;;;5075116;28;20442;-84
2023/05/04 01:22:56;;;;;;;2.40;1.40;;;10.40;99.90;;;;;;5075007;28;20473;-84
2023/05/04 01:25:24;;;;;;;2.90;1.47;;;10.40;99.90;;;;;;5074959;28;20477;-84
2023/05/04 01:27:57;;;;;;;2.50;1.30;;;10.30;99.90;;;;;;5075031;28;20453;-84
2023/05/04 01:30:29;;;;;;;5.53;2.30;;;10.30;99.90;;;;;;5074935;28;20423;-86
2023/05/04 01:32:58;;;;;;;1.33;1.23;;;10.20;99.90;;;;;;5074858;28;20474;-86
2023/05/04 01:35:25;;;;;;;3.50;1.90;;;10.30;99.90;;;;;;5074768;28;20457;-86
2023/05/04 01:37:52;;;;;;;2.20;1.43;;;10.30;99.90;;;;;;5074823;28;20450;-86
2023/05/04 01:40:20;;;;;;;1.83;1.73;;;10.20;99.90;;;;;;5074701;28;20452;-86
2023/05/04 01:42:47;;;;;;;1.47;1.37;;;10.20;99.90;;;;;;5074758;28;20485;-86
2023/05/04 01:45:14;;;;;;;5.83;2.40;;;10.10;99.90;;;;;;5074331;28;20485;-86
2023/05/04 01:47:40;;;;;;;3.83;2.73;;;10.10;99.90;;;;;;5074747;28;20453;-86
2023/05/04 01:50:08;;;;;;;2.83;1.40;;;10.10;99.90;;;;;;5074445;28;20450;-86
2023/05/04 01:52:35;;;;;;;2.60;2.40;;;10.00;99.90;;;;;;5074408;28;20473;-86
2023/05/04 01:55:01;;;;;;;3.07;1.33;;;10.00;99.90;;;;;;5074383;28;20477;-86
2023/05/04 01:57:29;;;;;;;7.00;2.03;;;10.00;99.90;;;;;;5074422;28;20524;-86
2023/05/04 01:59:56;;;;;;;4.10;2.67;;;10.00;99.90;;;;;;5074686;28;20828;-86
2023/05/04 02:02:23;;;;;;;3.00;1.70;;;10.00;99.90;;;;;;5073842;28;20495;-86
2023/05/04 02:04:50;;;;;;;2.73;1.80;;;9.90;99.90;;;;;;5073871;28;21046;-86
2023/05/04 02:07:17;;;;;;;1.50;1.00;;;9.90;99.90;;;;;;5074198;28;20456;-86
2023/05/04 02:09:44;;;;;;;3.60;1.70;;;9.90;99.90;;;;;;5073798;28;20971;-86
2023/05/04 02:12:10;;;;;;;1.53;1.33;;;9.90;99.90;;;;;;5074022;28;20477;-86
2023/05/04 02:14:38;;;;;;;2.23;2.13;;;9.90;99.90;;;;;;5073780;28;20446;-86
2023/05/04 02:17:06;;;;;;;3.27;1.40;;;9.90;99.90;;;;;;5074003;28;20532;-85
2023/05/04 02:19:33;;;;;;;2.67;1.80;;;9.90;99.90;;;;;;5073650;28;20442;-86
2023/05/04 02:21:59;;;;;;;3.20;2.10;;;9.90;99.90;;;;;;5073186;28;20474;-86
2023/05/04 02:24:26;;;;;;;3.00;1.93;;;9.90;99.90;;;;;;5073439;28;20482;-86
2023/05/04 02:26:53;;;;;;;3.77;1.90;;;9.80;99.90;;;;;;5073829;28;20449;-85
2023/05/04 02:29:20;;;;;;;5.03;2.60;;;9.80;99.90;;;;;;5073492;28;20453;-86
2023/05/04 02:31:48;;;;;;;5.50;2.80;;;9.90;99.90;;;;;;5073394;28;21066;-86
2023/05/04 02:34:14;;;;;;;6.83;2.93;;;9.80;99.90;;;;;;5073669;28;20453;-86
2023/05/04 02:36:41;;;;;;;2.57;1.70;;;9.70;99.90;;;;;;5073697;28;20450;-86
2023/05/04 02:39:08;;;;;;;4.73;1.70;;;9.80;99.90;;;;;;5073377;28;20802;-86
2023/05/04 02:41:35;;;;;;;2.00;1.27;;;9.70;99.90;;;;;;5073595;28;20470;-86
2023/05/04 02:44:01;;;;;;;2.80;2.13;;;9.70;99.90;;;;;;5073590;28;20453;-86
2023/05/04 02:46:28;;;;;;;4.10;2.43;;;9.70;99.90;;;;;;5073600;28;20482;-86
2023/05/04 02:48:56;;;;;;;4.10;2.30;;;9.80;99.90;;;;;;5073533;28;20459;-86
2023/05/04 02:51:23;;;;;;;4.13;2.03;;;9.70;99.90;;;;;;5073470;28;20462;-86
2023/05/04 02:53:49;;;;;;;2.40;1.63;;;9.70;99.90;;;;;;5073525;28;20455;-86
2023/05/04 02:56:16;;;;;;;3.03;2.27;;;9.80;99.90;;;;;;5073488;28;20465;-86
2023/05/04 02:58:43;;;;;;;3.07;1.83;;;9.80;99.90;;;;;;5073377;28;20963;-85
2023/05/04 03:01:10;;;;;;;7.20;2.40;;;9.80;99.90;;;;;;5073044;28;20489;-86
2023/05/04 03:03:36;;;;;;;4.53;2.30;;;9.70;99.90;;;;;;5073386;28;20434;-86
2023/05/04 03:06:05;;;;;;;3.97;1.90;;;9.70;99.90;;;;;;5073435;28;20480;-85
2023/05/04 03:08:31;;;;;;;6.43;2.07;;;9.70;99.90;;;;;;5073295;28;20549;-85
2023/05/04 03:10:58;;;;;;;6.33;2.70;;;9.70;99.90;;;;;;5073236;28;20529;-86
2023/05/04 03:13:25;;;;;;;5.97;2.40;;;9.70;99.90;;;;;;5073337;28;20867;-86
2023/05/04 03:15:52;;;;;;;2.20;1.90;;;9.70;99.90;;;;;;5073834;28;20458;-86
2023/05/04 03:18:18;;;;;;;3.67;2.53;;;9.70;99.90;;;;;;5073206;28;20449;-86
2023/05/04 03:20:45;;;;;;;3.90;2.13;;;9.70;99.90;;;;;;5073178;28;20456;-86
2023/05/04 03:23:13;;;;;;;9.73;4.17;;;9.70;99.90;;;;;;5073143;28;20527;-85
2023/05/04 03:25:40;;;;;;;4.80;2.50;;;9.70;99.90;;;;;;5073840;28;20481;-86
2023/05/04 03:28:07;;;;;;;4.20;2.23;;;9.70;99.90;;;;;;5073092;28;20445;-85
2023/05/04 03:30:34;;;;;;;4.53;3.17;;;9.70;99.90;;;;;;5073089;28;20449;-86
2023/05/04 03:33:01;;;;;;;3.80;1.90;;;9.70;99.90;;;;;;5075757;28;20465;-86
2023/05/04 03:35:27;;;;;;;3.80;2.30;;;9.70;99.90;;;;;;5077131;28;20477;-86
2023/05/04 03:37:54;;;;;;;6.80;2.97;;;9.70;99.90;;;;;;5077339;28;20536;-86
2023/05/04 03:40:23;;;;;;;3.83;2.87;;;9.70;99.90;;;;;;5076859;28;20813;-86
2023/05/04 03:42:50;;;;;;;5.00;3.23;;;9.70;99.90;;;;;;5077087;28;20515;-85
2023/05/04 03:45:17;;;;;;;2.00;1.87;;;9.70;99.90;;;;;;5076814;28;20487;-86
2023/05/04 03:47:44;;;;;;;10.87;3.67;;;9.60;99.90;;;;;;5076943;28;20456;-85
2023/05/04 03:50:11;;;;;;;4.90;2.20;;;9.60;99.90;;;;;;5077015;28;20461;-86
2023/05/04 03:52:38;;;;;;;5.17;2.00;;;9.60;99.90;;;;;;5076395;28;20477;-86
2023/05/04 03:55:06;;;;;;;8.27;3.90;;;9.70;99.90;;;;;;5076838;28;20442;-86
2023/05/04 03:57:34;;;;;;;1.90;1.33;;;9.60;99.90;;;;;;5076882;28;20458;-86
2023/05/04 04:00:00;;;;;;;7.50;2.13;;;9.60;99.90;;;;;;5076637;28;20826;-86
2023/05/04 04:02:27;;;;;;;6.47;2.73;;;9.60;99.90;;;;;;5076287;28;20980;-85
2023/05/04 04:04:54;;;;;;;5.33;2.90;;;9.60;99.90;;;;;;5076500;28;20489;-86
2023/05/04 04:07:21;;;;;;;4.27;2.57;;;9.60;99.90;;;;;;5076524;28;20491;-85
2023/05/04 04:09:47;;;;;;;5.87;2.90;;;9.60;99.90;;;;;;5076296;28;20430;-85
2023/05/04 04:12:17;;;;;;;8.80;2.40;;;9.60;99.90;;;;;;5076354;28;20469;-86
2023/05/04 04:14:47;;;;;;;5.80;3.17;;;9.70;99.90;;;;;;5076475;28;20426;-85
2023/05/04 04:17:14;;;;;;;4.57;2.00;;;9.70;99.90;;;;;;5076345;28;20460;-86
2023/05/04 04:19:40;;;;;;;4.10;2.80;;;9.70;99.90;;;;;;5076324;28;20520;-86
2023/05/04 04:22:07;;;;;;;7.37;3.97;;;9.60;99.90;;;;;;5075817;28;20473;-86
2023/05/04 04:24:34;;;;;;;4.27;2.33;;;9.60;99.90;;;;;;5076184;28;20452;-87
2023/05/04 04:27:01;;;;;;;3.83;2.17;;;9.70;99.90;;;;;;5076305;28;20519;-87
2023/05/04 04:29:27;;;;;;;3.77;1.80;;;9.70;99.90;;;;;;5076119;28;20450;-87
2023/05/04 04:31:55;;;;;;;5.07;3.47;;;9.60;99.90;;;;;;5076072;28;20461;-87
2023/05/04 04:34:23;;;;;;;7.47;2.57;;;9.70;99.90;;;;;;5076221;28;20449;-86
2023/05/04 04:36:50;;;;;;;3.47;2.70;;;9.60;99.90;;;;;;5075948;28;20450;-87
2023/05/04 04:39:16;;;;;;;9.73;3.27;;;9.70;99.90;;;;;;5076084;28;20540;-87
2023/05/04 04:41:43;;;;;;;5.67;2.93;;;9.70;99.90;;;;;;5075814;28;20476;-87
2023/05/04 04:44:10;;;;;;;4.67;2.27;;;9.70;99.90;;;;;;5074818;28;20822;-86
2023/05/04 04:46:37;;;;;;;3.30;2.50;;;9.70;99.90;;;;;;5075806;28;20555;-87
2023/05/04 04:49:06;;;;;;;6.13;3.50;;;9.70;99.90;;;;;;5075687;28;20453;-87
2023/05/04 04:51:32;;;;;;;5.47;2.80;;;9.70;99.90;;;;;;5075752;28;20469;-87
2023/05/04 04:53:59;;;;;;;5.37;2.67;;;9.80;99.90;;;;;;5075617;28;20448;-87
2023/05/04 04:56:26;;;;;;;4.63;2.70;;;9.80;99.90;;;;;;5075344;28;20455;-87
2023/05/04 04:58:52;;;;;;;3.33;3.03;;;9.90;99.90;;;;;;5075775;28;20446;-87
2023/05/04 05:01:19;;;;;;;2.83;2.50;;;9.90;99.90;;;;;;5075155;28;20484;-88
2023/05/04 05:03:47;;;;;;;2.73;2.50;;;9.90;99.90;;;;;;5075238;28;20441;-87
2023/05/04 05:06:16;;;;;;;2.40;2.00;;;9.90;99.90;;;;;;5075171;28;20930;-87
2023/05/04 05:08:43;;;;;;;4.03;3.40;;;9.90;99.90;;;;;;5075473;28;20827;-87
2023/05/04 05:11:10;;;;;;;4.67;2.60;;;10.10;99.90;;;;;;5075483;28;20445;-87
2023/05/04 05:13:37;;;;;;;8.33;2.80;;;10.10;99.90;;;;;;5075390;28;20446;-87
2023/05/04 05:16:04;;;;;;;4.20;2.60;;;10.20;99.90;;;;;;5075413;28;20445;-87
2023/05/04 05:18:31;;;;;;;5.07;2.60;;;10.20;99.90;;;;;;5075211;28;20503;-87
2023/05/04 05:20:59;;;;;;;5.13;2.90;;;10.30;99.90;;;;;;5075347;28;20453;-87
2023/05/04 05:23:27;;;;;;;4.70;3.13;;;10.40;99.90;;;;;;5074848;28;20972;-87
2023/05/04 05:25:54;;;;;;;7.63;2.80;;;10.50;99.90;;;;;;5075255;28;20476;-87
2023/05/04 05:28:21;;;;;;;7.57;2.83;;;10.60;99.90;;;;;;5074985;28;20461;-87
2023/05/04 05:30:50;;;;;;;11.43;3.77;;;10.70;99.90;;;;;;5074970;28;20458;-87
2023/05/04 05:33:17;;;;;;;5.90;3.30;;;10.80;99.90;;;;;;5074892;28;20562;-86
2023/05/04 05:35:44;;;;;;;4.73;2.83;;;10.90;99.90;;;;;;5074981;28;20453;-87
2023/05/04 05:38:11;;;;;;;6.37;3.63;;;10.90;99.90;;;;;;5075598;28;20449;-87
2023/05/04 05:40:39;;;;;;;7.00;3.30;;;11.00;99.90;;;;;;5074610;28;20545;-87
2023/05/04 05:43:06;;;;;;;5.67;2.80;;;11.10;99.90;;;;;;5074655;28;20480;-86
2023/05/04 05:45:32;;;;;;;5.30;2.50;;;11.20;99.90;;;;;;5074503;28;20484;-86
2023/05/04 05:47:59;;;;;;;4.90;2.03;;;11.20;99.90;;;;;;5074299;28;20960;-86
2023/05/04 05:50:26;;;;;;;6.90;3.93;;;11.40;99.90;;;;;;5074557;28;20442;-86
2023/05/04 05:52:53;;;;;;;5.80;3.07;;;11.50;99.90;;;;;;5074444;28;20496;-86
2023/05/04 05:55:19;;;;;;;8.47;3.30;;;11.70;99.90;;;;;;5073519;28;20473;-85
2023/05/04 05:57:47;;;;;;;6.30;3.30;;;11.90;99.90;;;;;;5074294;28;20453;-86
2023/05/04 06:00:15;;;;;;;7.60;3.10;;;12.10;99.90;;;;;;5074323;28;20453;-86
2023/05/04 06:02:42;;;;;;;12.77;3.90;;;12.40;99.90;;;;;;5074110;28;20481;-85
2023/05/04 06:05:10;;;;;;;5.30;3.17;;;12.70;99.90;;;;;;5074257;28;20453;-86
2023/05/04 06:07:37;;;;;;;6.17;3.23;;;12.90;99.90;;;;;;5074219;28;20441;-86
2023/05/04 06:10:04;;;;;;;4.27;3.07;;;13.30;99.90;;;;;;5074438;28;20445;-86
2023/05/04 06:12:31;;;;;;;6.37;3.47;;;13.60;99.90;;;;;;5073839;28;20453;-86
2023/05/04 06:14:59;;;;;;;7.10;3.80;;;14.00;99.90;;;;;;5073750;28;20965;-86
2023/05/04 06:17:26;;;;;;;5.67;3.30;;;14.60;99.90;;;;;;5074086;28;20445;-86
2023/05/04 06:19:52;;;;;;;5.80;2.90;;;15.10;99.90;;;;;;5073709;28;20446;-86
2023/05/04 06:22:19;;;;;;;9.77;3.07;;;15.50;99.90;;;;;;5073902;28;20474;-86
2023/05/04 06:24:46;;;;;;;4.97;3.50;;;15.70;99.90;;;;;;5073902;28;20460;-86
2023/05/04 06:27:13;;;;;;;4.23;3.27;;;15.70;99.90;;;;;;5073942;28;20554;-86
2023/05/04 06:29:40;;;;;;;6.30;4.10;;;15.70;99.90;;;;;;5073568;28;20472;-86
2023/05/04 06:32:08;;;;;;;5.17;3.17;;;15.80;99.90;;;;;;5073805;28;20523;-85
2023/05/04 06:34:35;;;;;;;6.07;3.73;;;16.00;99.90;;;;;;5074324;28;20452;-86
2023/05/04 06:37:02;;;;;;;3.33;3.03;;;16.20;99.90;;;;;;5073748;28;20442;-86
2023/05/04 06:39:28;;;;;;;5.20;4.10;;;16.40;99.90;;;;;;5073749;28;20477;-87
2023/05/04 06:41:55;;;;;;;6.30;3.90;;;16.70;99.90;;;;;;5073626;28;20469;-86
2023/05/04 06:44:22;;;;;;;10.50;4.43;;;17.10;99.90;;;;;;5073310;28;20464;-86
2023/05/04 06:46:50;;;;;;;5.40;3.70;;;17.40;99.90;;;;;;5073529;28;20508;-87
2023/05/04 06:49:18;;;;;;;5.90;3.77;;;17.30;99.90;;;;;;5073693;28;20493;-87
2023/05/04 06:51:44;;;;;;;4.97;3.40;;;17.90;99.90;;;;;;5073630;28;20462;-88
2023/05/04 06:54:11;;;;;;;4.40;2.90;;;18.40;99.90;;;;;;5073666;28;20434;-87
2023/05/04 06:56:38;;;;;;;5.73;4.77;;;19.00;99.90;;;;;;5073336;28;20441;-87
2023/05/04 06:59:06;;;;;;;7.50;4.07;;;19.50;99.90;;;;;;5073281;28;20502;-87
2023/05/04 07:01:32;;;;;;;10.10;3.77;;;20.20;99.90;;;;;;5073272;28;20481;-87
2023/05/04 07:03:59;;;;;;;5.20;3.50;;;20.70;99.90;;;;;;5073504;28;20457;-87
2023/05/04 07:06:28;;;;;;;5.83;4.10;;;20.80;99.90;;;;;;5073070;28;20485;-87
2023/05/04 07:08:55;;;;;;;4.67;2.93;;;21.30;99.10;;;;;;5073762;28;20805;-86
2023/05/04 07:11:22;;;;;;;4.07;3.03;;;22.20;97.40;;;;;;5073332;28;20481;-87
2023/05/04 07:13:49;;;;;;;5.67;3.83;;;23.10;95.00;;;;;;5074310;28;20457;-87
2023/05/04 07:16:16;;;;;;;4.30;3.60;;;23.90;92.60;;;;;;5073354;28;20202;-87
2023/05/04 07:18:42;;;;;;;4.30;2.90;;;24.00;89.70;;;;;;5073236;28;20195;-88
2023/05/04 07:21:10;;;;;;;4.63;3.08;;;24.50;87.10;;;;;;5073493;28;20569;-88
2023/05/04 07:23:38;;;;;;;7.05;3.88;;;24.80;82.30;;;;;;5073184;28;20195;-88
2023/05/04 07:26:06;;;;;;;3.47;3.17;;;25.40;80.30;;;;;;5073232;28;20214;-87
2023/05/04 07:28:33;;;;;;;3.67;2.53;;;26.40;75.90;;;;;;5073408;28;20268;-88
2023/05/04 07:31:00;;;;;;;2.67;2.40;;;27.10;71.10;;;;;;5073292;28;20194;-88
2023/05/04 07:33:27;;;;;;;4.70;2.85;;;27.40;68.90;;;;;;5073541;28;20213;-88
2023/05/04 07:35:57;;;;;;;3.78;3.20;;;27.90;66.50;;;;;;5073480;28;20206;-91
2023/05/04 07:38:25;;;;;;;3.28;2.78;;;28.00;64.50;;;;;;5073431;28;20183;-88
2023/05/04 07:40:54;;;;;;;2.72;2.58;;;27.90;61.70;;;;;;5073550;28;20217;-90
2023/05/04 07:43:21;;;;;;;3.25;2.95;;;27.70;61.50;;;;;;5073521;28;20222;-89
2023/05/04 07:45:48;;;;;;;2.70;2.30;;;27.60;60.30;;;;;;5073451;28;20202;-89
2023/05/04 07:48:15;;;;;;;4.32;3.00;;;28.40;58.80;;;;;;5073080;28;20194;-89
2023/05/04 07:50:42;;;;;;;2.50;2.25;;;29.30;58.60;;;;;;5073471;28;20635;-88
2023/05/04 07:53:09;;;;;;;2.25;1.92;;;30.60;57.20;;;;;;5071877;28;20218;-89
2023/05/04 07:55:36;;;;;;;2.17;1.98;;;31.20;52.80;;;;;;5073515;28;20209;-89
2023/05/04 07:58:04;;;;;;;2.00;1.90;;;32.40;51.90;;;;;;5073056;28;20199;-90
2023/05/04 08:00:31;;;;;;;2.13;2.03;;;33.20;48.70;;;;;;5073389;28;20206;-90
2023/05/04 08:02:58;;;;;;;2.33;2.22;;;34.00;46.40;;;;;;5072833;28;20610;-89
2023/05/04 08:05:24;;;;;;;5.88;2.50;;;34.70;45.10;;;;;;5072946;28;20721;-89
2023/05/04 08:07:51;;;;;;;2.20;2.00;;;34.70;43.00;;;;;;5072733;28;20202;-88
2023/05/04 08:10:18;;;;;;;2.00;1.90;;;34.00;43.60;;;;;;5072790;28;20206;-89
2023/05/04 08:12:45;;;;;;;2.05;1.90;;;32.70;43.90;;;;;;5072791;28;20227;-89
2023/05/04 08:15:16;;;;;;;1.60;1.50;;;31.10;45.90;;;;;;5072871;28;20207;-90
2023/05/04 08:17:44;;;;;;;2.20;2.10;;;30.30;45.30;;;;;;5073504;28;20222;-88
2023/05/04 08:20:12;;;;;;;1.65;1.55;;;29.30;47.30;;;;;;5075168;28;20199;-88
2023/05/04 08:22:39;;;;;;;2.33;2.05;;;28.60;47.80;;;;;;5077145;28;20223;-89
2023/05/04 08:25:06;;;;;;;2.10;1.90;;;27.80;49.60;;;;;;5076967;28;20257;-87
2023/05/04 08:27:33;;;;;;;2.28;2.03;;;27.00;51.40;;;;;;5076149;28;20206;-88
2023/05/04 08:30:00;;;;;;;2.45;2.25;;;26.60;52.00;;;;;;5076522;28;20378;-88
2023/05/04 08:32:28;;;;;;;1.77;1.67;;;26.00;51.50;;;;;;5076324;28;20226;-88
2023/05/04 08:34:55;;;;;;;4.00;2.33;;;25.80;53.40;;;;;;5076339;28;20206;-87
2023/05/04 08:37:21;;;;;;;3.50;2.20;;;25.60;54.60;;;;;;5076298;28;20222;-88
2023/05/04 08:39:48;;;;;;;2.33;2.13;;;25.40;55.00;;;;;;5076133;28;20210;-87
2023/05/04 08:42:26;;;;;;;5.53;2.22;;;25.00;54.10;;;;;;5076268;28;20590;-87
2023/05/04 08:44:55;;;;;;;2.67;2.28;;;24.70;56.60;;;;;;5076310;28;20221;-88
2023/05/04 08:47:22;;;;;;;4.35;2.38;;;24.60;56.60;;;;;;5075754;28;20202;-87
2023/05/04 08:49:50;;;;;;;2.95;2.60;;;24.30;56.40;;;;;;5076171;28;20206;-87
2023/05/04 08:52:17;;;;;;;2.97;2.17;;;24.10;58.50;;;;;;5075766;28;20226;-87
2023/05/04 08:54:46;;;;;;;2.95;2.33;;;24.00;58.70;;;;;;5075873;28;20293;-86
2023/05/04 08:57:14;;;;;;;2.03;1.88;;;24.00;58.50;;;;;;5075904;28;20233;-87
2023/05/04 08:59:42;;;;;;;2.63;2.15;;;23.70;59.00;;;;;;5075583;28;20215;-88
2023/05/04 09:02:13;;;;;;;3.20;2.93;;;23.60;59.40;;;;;;5075340;28;20726;-87
2023/05/04 09:04:40;;;;;;;2.67;2.20;;;23.50;59.10;;;;;;5075972;28;20209;-88
2023/05/04 09:07:08;;;;;;;2.63;2.30;;;23.60;60.60;;;;;;5076142;28;20195;-88
2023/05/04 09:09:35;;;;;;;1.90;1.80;;;23.60;60.50;;;;;;5075970;28;20217;-88
2023/05/04 09:12:01;;;;;;;2.40;2.17;;;23.40;59.70;;;;;;5075578;28;20214;-88
2023/05/04 09:14:35;;;;;;;3.33;2.38;;;23.60;60.90;;;;;;5075513;28;20658;-88
2023/05/04 09:17:02;;;;;;;1.93;1.83;;;23.50;59.50;;;;;;5075309;28;20219;-88
2023/05/04 09:19:33;;;;;;;3.90;2.03;;;23.30;59.30;;;;;;5075938;28;20187;-86
2023/05/04 09:22:00;;;;;;;2.50;2.30;;;23.10;61.10;;;;;;5075627;28;20264;-87
2023/05/04 09:24:29;;;;;;;4.13;2.13;;;22.90;62.90;;;;;;5075489;28;20206;-87
2023/05/04 09:27:07;;;;;;;2.43;1.87;;;22.80;64.80;;;;;;5075565;28;20206;-87
2023/05/04 09:29:36;;;;;;;3.80;3.00;;;22.70;63.80;;;;;;5075320;28;20201;-87
2023/05/04 09:32:04;;;;;;;3.53;2.30;;;22.60;62.90;;;;;;5076134;28;20473;-87
2023/05/04 09:34:32;;;;;;;3.10;2.80;;;22.70;62.20;;;;;;5074683;28;20674;-85
2023/05/04 09:37:00;;;;;;;3.20;1.80;;;22.60;60.20;;;;;;5075123;28;20489;-87
2023/05/04 09:39:29;;;;;;;3.27;2.50;;;22.50;61.80;;;;;;5074884;28;20932;-87
2023/05/04 09:41:56;;;;;;;2.77;1.87;;;22.50;62.20;;;;;;5075002;28;20519;-87
2023/05/04 09:44:24;;;;;;;2.60;2.40;;;22.40;61.90;;;;;;5074915;28;20506;-86
2023/05/04 09:46:55;;;;;;;3.30;2.13;;;22.20;61.30;;;;;;5074934;28;20449;-87
2023/05/04 09:49:39;;;;;;;2.93;2.20;;;22.10;61.80;;;;;;5074894;28;20445;-86
2023/05/04 09:52:06;;;;;;;3.27;2.77;;;22.20;63.40;;;;;;5074924;28;20472;-86
2023/05/04 09:54:37;;;;;;;2.70;2.43;;;22.40;63.10;;;;;;5075002;28;20956;-89
2023/05/04 09:57:11;;;;;;;3.90;2.30;;;22.30;62.20;;;;;;5075365;28;20469;-87
2023/05/04 09:59:38;;;;;;;2.30;2.10;;;22.40;61.50;;;;;;5074584;28;20928;-88
2023/05/04 10:02:05;;;;;;;2.03;1.90;;;22.60;62.70;;;;;;5074705;28;20538;-87
2023/05/04 10:04:33;;;;;;;2.90;2.50;;;22.60;60.30;;;;;;5074813;28;20432;-84
2023/05/04 10:07:02;;;;;;;2.93;2.30;;;22.60;60.20;;;;;;5074522;28;20205;-85
2023/05/04 10:09:30;;;;;;;2.80;1.87;;;22.70;60.50;;;;;;5074397;28;20447;-85
2023/05/04 10:12:00;;;;;;;3.00;2.70;;;22.90;59.70;;;;;;5074329;28;20479;-86
2023/05/04 10:14:30;;;;;;;3.83;2.00;;;23.00;59.10;;;;;;5074771;28;20294;-86
2023/05/04 10:17:04;;;;;;;2.30;2.00;;;23.10;59.60;;;;;;5074770;28;20480;-86
2023/05/04 10:19:53;;;;;;;2.97;1.70;;;22.90;59.50;;;;;;5073982;28;20183;-86
2023/05/04 10:22:43;;;;;;;1.60;1.50;;;22.90;62.00;;;;;;5074045;28;20472;-86
2023/05/04 10:25:38;;;;;;;1.63;1.53;;;22.90;58.20;;;;;;5074064;28;20209;-83
2023/05/04 10:28:20;;;;;;;1.80;1.70;;;22.90;57.10;;;;;;5071505;28;20461;-84
2023/05/04 10:30:47;;;;;;;1.60;1.50;;;23.20;56.60;;;;;;5073617;28;20194;-82
2023/05/04 10:33:14;;;;;;;2.00;1.80;;;23.40;56.40;;;;;;5073427;28;20996;-83
2023/05/04 10:35:51;;;;;;;1.40;1.30;;;23.30;57.20;;;;;;5073474;28;20678;-84
2023/05/04 10:38:18;;;;;;;1.90;1.30;;;23.00;56.50;;;;;;5073426;28;20207;-84
2023/05/04 10:40:47;;;;;;;2.73;1.50;;;23.10;57.00;;;;;;5073376;28;20673;-83
2023/05/04 10:43:23;;;;;;;1.95;1.55;;;23.50;56.80;;;;;;5073032;28;20247;-82
2023/05/04 10:45:50;;;;;;;2.00;1.67;;;24.00;55.70;;;;;;5073673;28;20214;-84
2023/05/04 10:48:17;;;;;;;1.08;1.08;;;24.20;55.10;;;;;;5073296;28;20666;-84
2023/05/04 10:50:45;;;;;;;2.75;1.50;;;24.10;55.60;;;;;;5073550;28;20198;-82
2023/05/04 10:53:12;;;;;;;2.08;1.67;;;24.60;54.60;;;;;;5073276;28;20223;-82
2023/05/04 10:55:40;;;;;;;3.05;1.77;;;25.00;54.30;;;;;;5073568;28;20658;-83
2023/05/04 10:58:07;;;;;;;1.88;1.35;;;25.60;52.80;;;;;;5073147;28;20214;-83
2023/05/04 11:00:40;;;;;;;1.65;1.55;;;25.90;51.80;;;;;;5074117;28;20223;-83
2023/05/04 11:03:07;;;;;;;1.85;1.65;;;26.30;51.00;;;;;;5074200;28;20332;-83
2023/05/04 11:05:44;;;;;;;1.25;1.15;;;26.20;50.60;;;;;;5073424;28;20199;-83
2023/05/04 11:08:18;;;;;;;1.60;1.38;;;25.60;50.30;;;;;;5073295;28;20202;-83
2023/05/04 11:10:47;;;;;;;1.50;1.40;;;24.90;52.50;;;;;;5073604;28;20209;-83
2023/05/04 11:13:14;;;;;;;1.25;1.15;;;24.30;54.30;;;;;;5073179;28;20249;-85
2023/05/04 11:15:46;;;;;;;1.67;1.58;;;24.00;53.80;;;;;;5073305;28;20207;-83
2023/05/04 11:18:13;;;;;;;1.70;1.58;;;23.90;55.20;;;;;;5073224;28;20226;-84
2023/05/04 11:20:40;;;;;;;1.20;1.10;;;23.80;55.10;;;;;;5073267;28;20207;-85
2023/05/04 11:23:09;;;;;;;1.70;1.55;;;23.50;54.30;;;;;;5073242;28;20280;-83
2023/05/04 11:25:37;;;;;;;2.27;1.33;;;23.30;54.20;;;;;;5073242;28;20209;-84
2023/05/04 11:28:04;;;;;;;1.20;1.20;;;23.20;54.80;;;;;;5073452;28;20274;-84
2023/05/04 11:30:32;;;;;;;1.57;1.47;;;23.20;54.60;;;;;;5073358;28;20191;-85
2023/05/04 11:33:01;;;;;;;1.53;1.40;;;23.10;54.60;;;;;;5073307;28;20252;-83
2023/05/04 11:35:28;;;;;;;1.93;1.00;;;23.00;54.20;;;;;;5072843;28;20446;-82
2023/05/04 11:37:55;;;;;;;1.57;1.47;;;22.90;53.90;;;;;;5073030;28;20222;-82
2023/05/04 11:40:23;;;;;;;11.90;1.30;;;22.80;54.60;;;;;;5072732;28;20233;-82
2023/05/04 11:42:51;;;;;;;1.40;1.30;;;22.80;53.30;;;;;;5072985;28;20245;-84
2023/05/04 11:45:21;;;;;;;1.33;1.00;;;22.80;53.50;;;;;;5073007;28;20483;-84
2023/05/04 11:47:48;;;;;;;1.30;1.13;;;22.50;53.20;;;;;;5072786;28;20205;-83
2023/05/04 11:50:19;;;;;;;1.57;1.37;;;22.40;52.50;;;;;;5072997;28;20445;-84
2023/05/04 11:52:46;;;;;;;1.40;1.30;;;22.50;54.50;;;;;;5073375;28;20469;-84
2023/05/04 11:55:24;;;;;;;1.30;1.20;;;22.50;52.90;;;;;;5076768;28;20467;-83
2023/05/04 11:57:56;;;;;;;1.67;1.07;;;22.40;53.60;;;;;;5076645;28;20473;-84
2023/05/04 12:00:34;;;;;;;0.80;0.80;;;22.50;53.40;;;;;;5077281;28;20828;-83
2023/05/04 12:03:01;;;;;;;1.77;1.47;;;22.50;52.90;;;;;;5076408;28;20494;-83
2023/05/04 12:05:30;;;;;;;1.33;1.00;;;22.50;53.40;;;;;;5076710;28;20464;-83
2023/05/04 12:07:57;;;;;;;1.20;1.10;;;22.50;52.90;;;;;;5076522;28;20536;-83
2023/05/04 12:10:27;;;;;;;0.87;0.87;;;22.50;53.50;;;;;;5076600;28;20449;-83
2023/05/04 12:12:54;;;;;;;2.40;1.07;;;22.50;53.90;;;;;;5076411;28;20468;-83
2023/05/04 12:15:29;;;;;;;1.20;1.10;;;22.50;52.80;;;;;;5076489;28;20444;-82
2023/05/04 12:17:55;;;;;;;1.37;1.27;;;22.50;53.70;;;;;;5076353;28;20468;-82
2023/05/04 12:20:23;;;;;;;1.07;0.97;;;22.50;53.30;;;;;;5076301;28;20449;-83
2023/05/04 12:22:52;;;;;;;0.90;0.80;;;22.40;52.70;;;;;;5076253;28;20504;-84
2023/05/04 12:25:19;;;;;;;1.00;0.90;;;22.30;52.20;;;;;;5075952;28;20425;-82
2023/05/04 12:27:46;;;;;;;1.40;1.30;;;22.20;52.80;;;;;;5076291;28;20513;-82
2023/05/04 12:30:13;;;;;;;1.40;1.30;;;22.10;54.70;;;;;;5076083;28;20445;-82
2023/05/04 12:32:40;;;;;;;1.13;1.00;;;22.10;52.40;;;;;;5075850;28;20994;-81
2023/05/04 12:35:07;;;;;;;1.10;1.10;;;22.10;51.50;;;;;;5076052;28;20452;-82
2023/05/04 12:37:34;;;;;;;1.00;0.83;;;22.20;53.10;;;;;;5075934;28;20480;-82
2023/05/04 12:40:03;;;;;;;1.93;1.80;;;22.10;51.50;;;;;;5075986;28;20457;-83
2023/05/04 12:42:30;;;;;;;1.80;1.07;;;22.10;53.90;;;;;;5075563;28;20918;-83
2023/05/04 12:44:57;;;;;;;1.13;1.13;;;22.00;53.40;;;;;;5075907;28;20457;-83
2023/05/04 12:47:25;;;;;;;1.07;1.07;;;21.90;53.40;;;;;;5075826;28;20457;-84
2023/05/04 12:49:51;;;;;;;1.23;1.13;;;21.80;53.10;;;;;;5075740;28;20477;-82
2023/05/04 12:52:18;;;;;;;1.37;1.27;;;21.70;52.60;;;;;;5075319;28;20992;-82